Time;durP1;ratioP1;P1;durP2;ratioP2;P2;SDS_P1;SDS_P2;PMS_P1;PMS_P2;Temp;Humidity;BMP_temperature;BMP_pressure;BME280_temperature;BME280_humidity;BME280_pressure;Samples;Min_cycle;Max_cycle;Signal;HPM_P1;HPM_P2
2023/08/07 00:00:41;;;;;;;15.75;10.57;;;12.50;99.90;;;;;;4998717;28;20552;-75
2023/08/07 00:03:07;;;;;;;15.10;9.43;;;12.50;99.90;;;;;;4998041;28;20180;-76
2023/08/07 00:05:33;;;;;;;13.35;8.52;;;12.50;99.90;;;;;;5015803;28;20696;-76
2023/08/07 00:07:59;;;;;;;13.18;7.90;;;12.50;99.90;;;;;;4998529;28;20281;-75
2023/08/07 00:10:24;;;;;;;10.75;7.72;;;12.50;99.90;;;;;;5015974;28;20176;-75
2023/08/07 00:12:50;;;;;;;8.63;5.97;;;12.40;99.90;;;;;;5015782;28;20178;-76
2023/08/07 00:15:16;;;;;;;7.70;5.80;;;12.50;99.90;;;;;;4997925;28;20191;-75
2023/08/07 00:17:41;;;;;;;7.20;5.68;;;12.50;99.90;;;;;;5015277;28;20190;-76
2023/08/07 00:20:08;;;;;;;5.63;4.85;;;12.40;99.90;;;;;;4999458;28;20184;-76
2023/08/07 00:22:34;;;;;;;7.95;5.47;;;12.40;99.90;;;;;;4999259;28;20179;-77
2023/08/07 00:25:00;;;;;;;5.65;4.78;;;12.40;99.90;;;;;;5016920;28;20649;-77
2023/08/07 00:27:25;;;;;;;5.00;4.50;;;12.40;99.90;;;;;;5000440;28;20591;-76
2023/08/07 00:29:51;;;;;;;4.78;4.22;;;12.50;99.90;;;;;;5000125;28;20605;-75
2023/08/07 00:32:17;;;;;;;7.65;4.65;;;12.40;99.90;;;;;;4999745;28;20211;-75
2023/08/07 00:34:43;;;;;;;5.03;4.40;;;12.50;99.90;;;;;;4998955;28;20220;-75
2023/08/07 00:37:09;;;;;;;5.90;4.85;;;12.40;99.90;;;;;;5015803;28;20330;-76
2023/08/07 00:39:34;;;;;;;5.10;4.60;;;12.50;99.90;;;;;;5015671;28;20238;-76
2023/08/07 00:42:00;;;;;;;5.13;4.35;;;12.50;99.90;;;;;;4998029;28;20195;-76
2023/08/07 00:44:26;;;;;;;6.25;4.20;;;12.50;99.90;;;;;;4997263;28;20191;-76
2023/08/07 00:46:52;;;;;;;6.80;4.90;;;12.50;99.90;;;;;;5015000;28;20203;-76
2023/08/07 00:49:19;;;;;;;5.15;4.35;;;12.50;99.90;;;;;;4997546;28;20659;-76
2023/08/07 00:51:45;;;;;;;6.35;4.43;;;12.50;99.90;;;;;;4997370;28;20690;-76
2023/08/07 00:54:13;;;;;;;4.53;3.92;;;12.50;99.90;;;;;;4997482;28;20546;-75
2023/08/07 00:56:40;;;;;;;4.38;3.92;;;12.50;99.90;;;;;;4997171;28;20200;-76
2023/08/07 00:59:06;;;;;;;5.85;4.28;;;12.50;99.90;;;;;;4996954;28;20178;-77
2023/08/07 01:01:32;;;;;;;4.47;4.03;;;12.50;99.90;;;;;;4997336;28;20590;-76
2023/08/07 01:03:58;;;;;;;5.35;4.07;;;12.60;99.90;;;;;;4997102;28;20183;-76
2023/08/07 01:06:24;;;;;;;4.80;4.05;;;12.60;99.90;;;;;;4996912;28;20249;-76
2023/08/07 01:08:50;;;;;;;8.73;4.35;;;12.60;99.90;;;;;;4996965;28;20359;-77
2023/08/07 01:11:26;;;;;;;5.28;4.60;;;12.60;99.90;;;;;;4996922;28;20180;-76
2023/08/07 01:14:00;;;;;;;5.03;4.30;;;12.60;99.90;;;;;;4997077;28;20226;-77
2023/08/07 01:16:36;;;;;;;5.70;4.65;;;12.70;99.90;;;;;;5014094;28;20240;-77
2023/08/07 01:19:04;;;;;;;6.47;4.43;;;12.70;99.90;;;;;;4997631;28;20172;-77
2023/08/07 01:21:32;;;;;;;5.85;5.03;;;12.70;99.90;;;;;;5016127;28;20258;-78
2023/08/07 01:23:58;;;;;;;6.43;4.82;;;12.70;99.90;;;;;;5016468;28;20175;-79
2023/08/07 01:26:24;;;;;;;5.78;5.18;;;12.70;99.90;;;;;;4997733;28;20706;-78
2023/08/07 01:29:05;;;;;;;9.10;5.88;;;12.60;99.90;;;;;;4997322;28;20214;-78
2023/08/07 01:31:35;;;;;;;6.22;5.63;;;12.60;99.90;;;;;;4997811;28;20172;-78
2023/08/07 01:34:06;;;;;;;8.35;6.28;;;12.70;99.90;;;;;;4999815;28;20176;-79
2023/08/07 01:36:33;;;;;;;9.85;6.97;;;12.60;99.90;;;;;;5015806;28;20184;-78
2023/08/07 01:39:01;;;;;;;10.27;7.03;;;12.60;99.90;;;;;;5014739;28;20168;-77
2023/08/07 01:41:27;;;;;;;13.98;7.47;;;12.60;99.90;;;;;;4996914;28;20183;-77
2023/08/07 01:43:54;;;;;;;10.23;7.00;;;12.60;99.90;;;;;;4996558;28;20292;-78
2023/08/07 01:46:20;;;;;;;7.47;6.65;;;12.60;99.90;;;;;;4996350;28;20218;-78
2023/08/07 01:48:46;;;;;;;9.15;6.90;;;12.60;99.90;;;;;;4996348;28;20696;-75
2023/08/07 01:51:12;;;;;;;11.02;6.85;;;12.60;99.90;;;;;;4996412;28;20266;-76
2023/08/07 01:53:38;;;;;;;10.52;6.13;;;12.60;99.90;;;;;;5013985;28;20203;-76
2023/08/07 01:56:04;;;;;;;9.95;6.28;;;12.60;99.90;;;;;;5013900;28;20199;-76
2023/08/07 01:58:29;;;;;;;11.25;6.60;;;12.60;99.90;;;;;;4996145;28;20191;-76
2023/08/07 02:00:55;;;;;;;9.48;6.13;;;12.50;99.90;;;;;;5013683;28;20185;-76
2023/08/07 02:03:21;;;;;;;8.30;5.93;;;12.60;99.90;;;;;;4996334;28;20179;-76
2023/08/07 02:05:47;;;;;;;10.93;7.25;;;12.50;99.90;;;;;;4996101;28;20569;-77
2023/08/07 02:08:13;;;;;;;9.32;6.32;;;12.50;99.90;;;;;;4996044;28;20679;-76
2023/08/07 02:10:38;;;;;;;10.02;6.47;;;12.50;99.90;;;;;;5012410;28;20172;-77
2023/08/07 02:13:04;;;;;;;9.52;6.53;;;12.50;99.90;;;;;;5013898;28;20222;-75
2023/08/07 02:15:30;;;;;;;10.07;6.20;;;12.50;99.90;;;;;;5013459;28;20175;-77
2023/08/07 02:17:56;;;;;;;16.30;7.28;;;12.40;99.90;;;;;;4996344;28;20192;-75
2023/08/07 02:20:21;;;;;;;10.23;6.90;;;12.40;99.90;;;;;;5013714;28;20180;-75
2023/08/07 02:22:47;;;;;;;15.93;8.02;;;12.40;99.90;;;;;;4996143;28;20667;-75
2023/08/07 02:25:13;;;;;;;16.80;8.60;;;12.40;99.90;;;;;;4996508;28;20183;-76
2023/08/07 02:27:39;;;;;;;12.43;9.63;;;12.40;99.90;;;;;;4998137;28;20597;-75
2023/08/07 02:30:06;;;;;;;15.02;9.80;;;12.40;99.90;;;;;;5015765;28;20180;-77
2023/08/07 02:32:31;;;;;;;14.18;10.07;;;12.40;99.90;;;;;;4999708;28;20168;-76
2023/08/07 02:34:58;;;;;;;16.50;10.07;;;12.40;99.90;;;;;;5017430;28;20190;-76
2023/08/07 02:37:24;;;;;;;13.25;9.95;;;12.40;99.90;;;;;;5015689;28;20211;-76
2023/08/07 02:39:49;;;;;;;14.95;9.63;;;12.30;99.90;;;;;;4999381;28;20184;-76
2023/08/07 02:42:15;;;;;;;15.52;9.82;;;12.40;99.90;;;;;;4999433;28;20184;-76
2023/08/07 02:44:41;;;;;;;15.48;10.30;;;12.30;99.90;;;;;;4999264;28;20205;-76
2023/08/07 02:47:07;;;;;;;13.07;9.40;;;12.30;99.90;;;;;;5015489;28;20737;-76
2023/08/07 02:49:32;;;;;;;12.05;9.80;;;12.30;99.90;;;;;;4999325;28;20176;-76
2023/08/07 02:51:58;;;;;;;13.75;10.25;;;12.30;99.90;;;;;;4999343;28;20184;-75
2023/08/07 02:54:24;;;;;;;13.38;8.85;;;12.30;99.90;;;;;;5016908;28;20178;-76
2023/08/07 02:56:50;;;;;;;11.45;8.70;;;12.40;99.90;;;;;;5016824;28;20203;-75
2023/08/07 02:59:16;;;;;;;16.58;9.30;;;12.40;99.90;;;;;;4998928;28;20188;-76
2023/08/07 03:01:43;;;;;;;11.50;8.80;;;12.30;99.90;;;;;;4999095;28;20259;-78
2023/08/07 03:04:09;;;;;;;11.48;8.70;;;12.30;99.90;;;;;;4999173;28;20184;-75
2023/08/07 03:06:35;;;;;;;13.15;9.63;;;12.30;99.90;;;;;;4998913;28;20727;-74
2023/08/07 03:09:01;;;;;;;14.23;9.60;;;12.30;99.90;;;;;;5016747;28;20192;-75
2023/08/07 03:11:27;;;;;;;12.55;8.57;;;12.30;99.90;;;;;;4998819;28;20267;-75
2023/08/07 03:13:52;;;;;;;11.55;8.52;;;12.40;99.90;;;;;;5016413;28;20175;-76
2023/08/07 03:16:18;;;;;;;12.38;7.55;;;12.40;99.90;;;;;;4998798;28;20226;-75
2023/08/07 03:18:44;;;;;;;8.95;7.07;;;12.40;99.90;;;;;;4998784;28;20695;-75
2023/08/07 03:21:10;;;;;;;9.48;7.65;;;12.40;99.90;;;;;;4998891;28;20275;-75
2023/08/07 03:23:35;;;;;;;10.27;8.52;;;12.40;99.90;;;;;;4998719;28;20266;-75
2023/08/07 03:26:07;;;;;;;9.50;8.32;;;12.40;99.90;;;;;;4998799;28;20200;-76
2023/08/07 03:28:33;;;;;;;9.70;7.47;;;12.40;99.90;;;;;;4998373;28;20216;-76
2023/08/07 03:30:59;;;;;;;10.30;8.20;;;12.40;99.90;;;;;;5014679;28;20231;-75
2023/08/07 03:33:25;;;;;;;9.38;7.88;;;12.40;99.90;;;;;;4998473;28;20219;-75
2023/08/07 03:35:51;;;;;;;10.80;7.80;;;12.40;99.90;;;;;;4998337;28;20567;-75
2023/08/07 03:38:16;;;;;;;9.27;7.20;;;12.50;99.90;;;;;;4997712;28;20563;-76
2023/08/07 03:40:42;;;;;;;7.15;6.05;;;12.50;99.90;;;;;;4998308;28;20562;-75
2023/08/07 03:43:08;;;;;;;8.55;6.13;;;12.40;99.90;;;;;;4998350;28;20184;-75
2023/08/07 03:45:34;;;;;;;9.95;6.68;;;12.50;99.90;;;;;;4997976;28;20684;-76
2023/08/07 03:47:59;;;;;;;7.35;5.88;;;12.40;99.90;;;;;;4998066;28;20576;-75
2023/08/07 03:50:25;;;;;;;7.35;5.72;;;12.40;99.90;;;;;;4998166;28;20206;-75
2023/08/07 03:52:51;;;;;;;9.60;5.50;;;12.50;99.90;;;;;;4998162;28;20180;-75
2023/08/07 03:55:18;;;;;;;9.55;5.63;;;12.50;99.90;;;;;;4997974;28;20179;-75
2023/08/07 03:57:44;;;;;;;8.68;5.53;;;12.50;99.90;;;;;;4998119;28;20175;-74
2023/08/07 04:00:10;;;;;;;6.68;4.72;;;12.50;99.90;;;;;;4997706;28;20652;-74
2023/08/07 04:02:36;;;;;;;5.47;4.75;;;12.50;99.90;;;;;;4997977;28;20237;-74
2023/08/07 04:05:02;;;;;;;7.47;5.07;;;12.50;99.90;;;;;;4997959;28;20192;-74
2023/08/07 04:07:28;;;;;;;8.82;5.32;;;12.50;99.90;;;;;;4997998;28;20223;-75
2023/08/07 04:09:54;;;;;;;10.00;5.25;;;12.40;99.90;;;;;;4998086;28;20172;-74
2023/08/07 04:12:19;;;;;;;8.23;5.30;;;12.50;99.90;;;;;;5004803;28;20192;-75
2023/08/07 04:14:45;;;;;;;8.13;5.45;;;12.50;99.90;;;;;;5006676;28;20180;-74
2023/08/07 04:17:11;;;;;;;7.20;5.00;;;12.50;99.90;;;;;;4998231;28;20211;-74
2023/08/07 04:19:37;;;;;;;8.77;5.43;;;12.40;99.90;;;;;;4997541;28;20184;-74
2023/08/07 04:22:03;;;;;;;10.05;5.18;;;12.40;99.90;;;;;;4997525;28;20267;-74
2023/08/07 04:24:29;;;;;;;9.27;5.85;;;12.50;99.90;;;;;;5015174;28;20176;-74
2023/08/07 04:26:54;;;;;;;8.13;5.88;;;12.40;99.90;;;;;;4997439;28;20258;-75
2023/08/07 04:29:20;;;;;;;10.30;6.82;;;12.40;99.90;;;;;;4997195;28;20245;-76
2023/08/07 04:31:46;;;;;;;12.27;7.13;;;12.50;99.90;;;;;;4997492;28;20184;-74
2023/08/07 04:34:12;;;;;;;15.50;7.85;;;12.40;99.90;;;;;;4997156;28;20649;-75
2023/08/07 04:36:38;;;;;;;11.48;7.63;;;12.40;99.90;;;;;;4997102;28;20207;-75
2023/08/07 04:39:04;;;;;;;19.80;9.35;;;12.50;99.90;;;;;;5013707;28;20182;-74
2023/08/07 04:41:29;;;;;;;16.40;9.68;;;12.40;99.90;;;;;;5015211;28;20194;-74
2023/08/07 04:43:55;;;;;;;15.77;8.52;;;12.40;99.90;;;;;;5013182;28;20180;-75
2023/08/07 04:46:21;;;;;;;18.02;9.93;;;12.40;99.90;;;;;;5014017;28;20267;-74
2023/08/07 04:48:47;;;;;;;20.17;10.02;;;12.50;99.90;;;;;;4996734;28;20226;-76
2023/08/07 04:51:13;;;;;;;18.55;10.15;;;12.50;99.90;;;;;;5012486;28;20226;-76
2023/08/07 04:53:39;;;;;;;17.02;10.63;;;12.50;99.90;;;;;;4996814;28;20171;-76
2023/08/07 04:56:05;;;;;;;17.58;10.65;;;12.40;99.90;;;;;;5013358;28;20200;-77
2023/08/07 04:58:30;;;;;;;21.20;11.68;;;12.40;99.90;;;;;;5013032;28;20270;-77
2023/08/07 05:00:57;;;;;;;20.45;11.25;;;12.40;99.90;;;;;;5013454;28;20207;-76
2023/08/07 05:03:23;;;;;;;16.65;11.93;;;12.50;99.90;;;;;;5014742;28;20182;-77
2023/08/07 05:05:49;;;;;;;26.90;15.05;;;12.50;99.90;;;;;;5013691;28;20251;-77
2023/08/07 05:08:16;;;;;;;20.75;13.93;;;12.50;99.90;;;;;;5014184;28;20211;-77
2023/08/07 05:10:42;;;;;;;18.80;12.55;;;12.40;99.90;;;;;;5016257;28;20194;-77
2023/08/07 05:13:08;;;;;;;23.13;14.18;;;12.40;99.90;;;;;;5015931;28;20628;-75
2023/08/07 05:15:34;;;;;;;36.50;15.90;;;12.40;99.90;;;;;;5014229;28;20175;-78
2023/08/07 05:17:59;;;;;;;22.70;15.27;;;12.50;99.90;;;;;;4997656;28;20195;-77
2023/08/07 05:20:25;;;;;;;23.95;16.27;;;12.40;99.90;;;;;;5015197;28;20553;-76
2023/08/07 05:22:51;;;;;;;24.08;15.48;;;12.50;99.90;;;;;;5014506;28;20229;-76
2023/08/07 05:25:18;;;;;;;23.10;17.40;;;12.40;99.90;;;;;;5012575;28;20553;-77
2023/08/07 05:27:45;;;;;;;19.48;14.45;;;12.50;99.90;;;;;;5012285;28;20579;-76
2023/08/07 05:30:11;;;;;;;23.52;16.10;;;12.40;99.90;;;;;;5012186;28;20187;-77
2023/08/07 05:32:37;;;;;;;26.10;15.63;;;12.40;99.90;;;;;;5012470;28;20186;-76
2023/08/07 05:35:05;;;;;;;22.35;15.95;;;12.50;99.90;;;;;;5013017;28;20263;-76
2023/08/07 05:37:31;;;;;;;26.25;15.88;;;12.50;99.90;;;;;;5012328;28;20212;-77
2023/08/07 05:39:57;;;;;;;20.83;16.30;;;12.50;99.90;;;;;;5013004;28;20551;-76
2023/08/07 05:42:23;;;;;;;20.55;16.08;;;12.40;99.90;;;;;;5013828;28;20171;-77
2023/08/07 05:44:49;;;;;;;26.50;15.40;;;12.40;99.90;;;;;;5012081;28;20187;-77
2023/08/07 05:47:15;;;;;;;23.15;15.05;;;12.30;99.90;;;;;;5012149;28;20218;-77
2023/08/07 05:49:41;;;;;;;20.35;13.80;;;12.30;99.90;;;;;;5014123;28;20172;-77
2023/08/07 05:52:07;;;;;;;23.17;15.63;;;12.40;99.90;;;;;;5012240;28;20182;-77
2023/08/07 05:54:32;;;;;;;21.02;15.40;;;12.40;99.90;;;;;;4996044;28;20186;-76
2023/08/07 05:56:58;;;;;;;24.92;17.13;;;12.40;99.90;;;;;;5012816;28;20199;-77
2023/08/07 05:59:24;;;;;;;23.65;15.32;;;12.30;99.90;;;;;;5012173;28;20179;-78
2023/08/07 06:01:50;;;;;;;22.48;16.45;;;12.30;99.90;;;;;;5013336;28;20266;-78
2023/08/07 06:04:16;;;;;;;21.10;14.70;;;12.30;99.90;;;;;;5016115;28;20179;-78
2023/08/07 06:06:42;;;;;;;19.33;15.45;;;12.30;99.90;;;;;;5015966;28;20294;-77
2023/08/07 06:09:09;;;;;;;19.02;13.32;;;12.40;99.90;;;;;;5016525;28;20176;-78
2023/08/07 06:11:35;;;;;;;16.63;10.48;;;12.30;99.90;;;;;;5016167;28;20184;-77
2023/08/07 06:14:01;;;;;;;14.93;9.85;;;12.30;99.90;;;;;;5016056;28;20160;-77
2023/08/07 06:16:27;;;;;;;12.98;8.27;;;12.30;99.90;;;;;;4999612;28;20741;-77
2023/08/07 06:18:53;;;;;;;10.50;8.55;;;12.30;99.90;;;;;;5000065;28;20241;-78
2023/08/07 06:21:20;;;;;;;14.95;9.45;;;12.20;99.90;;;;;;5018049;28;20172;-79
2023/08/07 06:23:46;;;;;;;12.18;8.13;;;12.20;99.90;;;;;;5000435;28;20180;-78
2023/08/07 06:26:12;;;;;;;12.18;8.38;;;12.20;99.90;;;;;;5000314;28;20203;-78
2023/08/07 06:28:39;;;;;;;10.45;7.82;;;12.20;99.90;;;;;;5016482;28;20222;-79
2023/08/07 06:31:09;;;;;;;13.55;7.60;;;12.20;99.90;;;;;;5017942;28;20172;-78
2023/08/07 06:33:35;;;;;;;8.13;6.93;;;12.30;99.90;;;;;;5017531;28;20164;-78
2023/08/07 06:36:03;;;;;;;9.25;6.68;;;12.20;99.90;;;;;;4999639;28;20691;-78
2023/08/07 06:38:29;;;;;;;9.52;6.82;;;12.30;99.90;;;;;;5017374;28;20234;-78
2023/08/07 06:40:55;;;;;;;11.35;7.60;;;12.30;99.90;;;;;;5000150;28;20267;-78
2023/08/07 06:43:21;;;;;;;9.32;7.22;;;12.30;99.90;;;;;;5000434;28;20191;-78
2023/08/07 06:45:50;;;;;;;8.15;5.95;;;12.30;99.90;;;;;;5000941;28;20570;-78
2023/08/07 06:48:16;;;;;;;9.60;7.45;;;12.30;99.90;;;;;;5000371;28;20200;-78
2023/08/07 06:50:42;;;;;;;11.48;6.97;;;12.30;99.90;;;;;;4999585;28;20263;-77
2023/08/07 06:53:07;;;;;;;12.73;8.90;;;12.30;99.90;;;;;;4999747;28;20184;-78
2023/08/07 06:55:33;;;;;;;13.43;8.85;;;12.30;99.90;;;;;;4999217;28;20194;-77
2023/08/07 06:57:59;;;;;;;13.68;9.75;;;12.30;99.90;;;;;;4999086;28;20191;-77
2023/08/07 07:00:25;;;;;;;17.55;12.23;;;12.30;99.90;;;;;;4999032;28;20179;-78
2023/08/07 07:02:51;;;;;;;19.23;13.93;;;12.30;99.90;;;;;;4999261;28;20674;-78
2023/08/07 07:05:17;;;;;;;17.45;11.82;;;12.30;99.90;;;;;;5016545;28;20179;-76
2023/08/07 07:07:42;;;;;;;20.00;12.70;;;12.40;99.90;;;;;;4998885;28;20290;-77
2023/08/07 07:10:08;;;;;;;16.13;12.75;;;12.40;99.90;;;;;;5016858;28;20251;-78
2023/08/07 07:12:34;;;;;;;18.85;13.63;;;12.40;99.90;;;;;;5001718;28;20189;-77
2023/08/07 07:15:00;;;;;;;18.23;13.43;;;12.50;99.90;;;;;;5014895;28;20167;-78
2023/08/07 07:17:26;;;;;;;18.70;13.32;;;12.50;99.90;;;;;;5015620;28;20246;-76
2023/08/07 07:19:52;;;;;;;23.30;14.90;;;12.50;99.90;;;;;;5015359;28;20588;-77
2023/08/07 07:22:18;;;;;;;23.33;14.68;;;12.50;99.90;;;;;;5016011;28;20787;-78
2023/08/07 07:24:43;;;;;;;21.65;15.70;;;12.50;99.90;;;;;;5001459;28;20667;-78
2023/08/07 07:27:09;;;;;;;22.50;15.48;;;12.60;99.90;;;;;;5018921;28;20737;-79
2023/08/07 07:29:35;;;;;;;22.73;15.63;;;12.60;99.90;;;;;;5018564;28;20640;-78
2023/08/07 07:32:01;;;;;;;19.77;15.20;;;12.60;99.90;;;;;;5002127;28;20180;-78
2023/08/07 07:34:29;;;;;;;19.83;14.15;;;12.70;99.90;;;;;;5001350;28;20191;-79
2023/08/07 07:36:58;;;;;;;20.73;13.15;;;12.70;99.90;;;;;;5017601;28;20235;-79
2023/08/07 07:39:24;;;;;;;16.58;13.18;;;12.70;99.90;;;;;;5017392;28;20187;-80
2023/08/07 07:41:50;;;;;;;16.77;13.57;;;12.70;99.90;;;;;;5017212;28;20176;-78
2023/08/07 07:44:16;;;;;;;19.17;13.55;;;12.70;99.90;;;;;;5016674;28;20610;-78
2023/08/07 07:46:45;;;;;;;17.92;13.20;;;12.80;99.90;;;;;;5015986;28;20758;-78
2023/08/07 07:49:10;;;;;;;15.57;13.10;;;12.80;99.90;;;;;;5016900;28;20176;-78
2023/08/07 07:51:37;;;;;;;17.15;12.55;;;12.80;99.90;;;;;;5016073;28;20179;-79
2023/08/07 07:54:03;;;;;;;14.27;10.57;;;12.80;99.90;;;;;;5017903;28;20172;-79
2023/08/07 07:56:29;;;;;;;15.30;10.05;;;12.90;99.90;;;;;;5016651;28;20198;-78
2023/08/07 07:58:55;;;;;;;12.98;8.52;;;12.90;99.90;;;;;;5018828;28;20206;-79
2023/08/07 08:01:21;;;;;;;12.50;8.80;;;12.90;99.90;;;;;;5000447;28;20186;-79
2023/08/07 08:03:46;;;;;;;11.13;7.97;;;12.90;99.90;;;;;;5016423;28;20606;-79
2023/08/07 08:06:13;;;;;;;11.05;8.50;;;12.90;99.90;;;;;;4999818;28;20199;-78
2023/08/07 08:08:39;;;;;;;13.68;8.55;;;12.90;99.90;;;;;;4999745;28;20558;-79
2023/08/07 08:11:05;;;;;;;11.15;9.02;;;12.90;99.90;;;;;;4999967;28;20168;-79
2023/08/07 08:13:30;;;;;;;11.07;8.25;;;12.90;99.90;;;;;;4998638;28;20222;-78
2023/08/07 08:15:56;;;;;;;11.30;8.25;;;13.00;99.90;;;;;;4998498;28;20191;-78
2023/08/07 08:18:22;;;;;;;9.95;8.88;;;13.10;99.90;;;;;;4998846;28;20183;-78
2023/08/07 08:20:48;;;;;;;11.45;8.60;;;13.00;99.90;;;;;;4998736;28;20191;-79
2023/08/07 08:23:13;;;;;;;11.93;8.50;;;13.10;99.90;;;;;;5016726;28;20267;-79
2023/08/07 08:25:39;;;;;;;11.98;8.40;;;13.00;99.90;;;;;;4999914;28;20203;-78
2023/08/07 08:28:05;;;;;;;10.82;7.75;;;13.10;99.90;;;;;;4998662;28;20718;-78
2023/08/07 08:30:31;;;;;;;11.23;8.73;;;13.10;99.90;;;;;;5016549;28;20176;-78
2023/08/07 08:32:57;;;;;;;11.20;7.88;;;13.10;99.90;;;;;;4999195;28;20183;-79
2023/08/07 08:35:23;;;;;;;11.43;8.27;;;13.10;99.90;;;;;;4998719;28;20246;-78
2023/08/07 08:37:48;;;;;;;10.57;8.30;;;13.10;99.90;;;;;;4999043;28;20195;-78
2023/08/07 08:40:17;;;;;;;14.60;8.73;;;13.20;99.90;;;;;;5016226;28;20324;-79
2023/08/07 08:42:47;;;;;;;13.45;9.15;;;13.20;99.90;;;;;;4999473;28;20187;-79
2023/08/07 08:45:14;;;;;;;19.75;10.48;;;13.20;99.90;;;;;;5016595;28;20156;-78
2023/08/07 08:47:43;;;;;;;14.50;8.73;;;13.20;99.90;;;;;;5014837;28;20207;-79
2023/08/07 08:50:14;;;;;;;12.00;7.80;;;13.30;99.90;;;;;;4998494;28;20198;-78
2023/08/07 08:52:43;;;;;;;14.13;7.60;;;13.30;99.90;;;;;;4998940;28;20175;-79
2023/08/07 08:55:10;;;;;;;14.20;7.32;;;13.40;99.90;;;;;;5015287;28;20182;-78
2023/08/07 08:57:38;;;;;;;11.77;6.05;;;13.40;99.90;;;;;;5016569;28;20191;-78
2023/08/07 09:00:18;;;;;;;15.95;6.53;;;13.40;99.90;;;;;;4998792;28;20601;-78
2023/08/07 09:02:45;;;;;;;8.32;5.30;;;13.50;99.90;;;;;;5015020;28;20278;-78
2023/08/07 09:05:11;;;;;;;9.23;5.72;;;13.60;99.90;;;;;;4998810;28;20188;-79
2023/08/07 09:07:37;;;;;;;12.15;5.50;;;13.70;99.90;;;;;;4998453;28;20214;-78
2023/08/07 09:10:03;;;;;;;12.13;5.40;;;13.70;99.90;;;;;;5016405;28;20644;-78
2023/08/07 09:12:32;;;;;;;12.50;5.10;;;13.70;99.90;;;;;;4998968;28;20267;-79
2023/08/07 09:14:58;;;;;;;12.85;5.75;;;13.80;99.90;;;;;;5015249;28;20183;-77
2023/08/07 09:17:29;;;;;;;15.52;6.32;;;13.80;99.90;;;;;;5015570;28;20195;-78
2023/08/07 09:19:55;;;;;;;13.20;5.55;;;13.90;99.90;;;;;;5014536;28;20217;-79
2023/08/07 09:22:21;;;;;;;9.40;4.55;;;13.90;99.90;;;;;;4998309;28;20202;-79
2023/08/07 09:24:47;;;;;;;10.90;4.55;;;13.80;99.90;;;;;;4999689;28;20648;-79
2023/08/07 09:27:13;;;;;;;8.88;4.75;;;13.80;99.90;;;;;;4999767;28;20207;-79
2023/08/07 09:29:46;;;;;;;10.02;5.18;;;13.70;99.90;;;;;;5016458;28;20216;-79
2023/08/07 09:32:13;;;;;;;12.15;4.90;;;13.70;99.90;;;;;;4999247;28;20175;-78
2023/08/07 09:34:42;;;;;;;17.23;5.53;;;13.80;99.90;;;;;;5016216;28;20172;-77
2023/08/07 09:37:09;;;;;;;11.55;5.47;;;13.80;99.90;;;;;;5015970;28;20669;-78
2023/08/07 09:39:38;;;;;;;15.93;6.25;;;13.90;99.90;;;;;;5003052;28;20245;-77
2023/08/07 09:42:04;;;;;;;12.20;6.45;;;14.00;99.90;;;;;;5020250;28;20176;-77
2023/08/07 09:44:38;;;;;;;15.93;6.63;;;14.20;99.90;;;;;;5020869;28;20687;-77
2023/08/07 09:47:16;;;;;;;13.82;7.65;;;14.20;99.90;;;;;;5002192;28;20679;-75
2023/08/07 09:49:43;;;;;;;20.00;7.47;;;14.30;99.90;;;;;;5002647;28;20271;-78
2023/08/07 09:52:18;;;;;;;14.73;7.65;;;14.40;99.90;;;;;;5020260;28;20175;-76
2023/08/07 09:54:43;;;;;;;17.75;8.07;;;14.50;99.90;;;;;;5003045;28;20175;-75
2023/08/07 09:57:09;;;;;;;12.07;8.23;;;14.50;99.90;;;;;;5018689;28;20737;-75
2023/08/07 09:59:35;;;;;;;14.50;7.10;;;14.50;99.90;;;;;;5018987;28;20187;-75
2023/08/07 10:02:02;;;;;;;15.48;7.53;;;14.50;99.90;;;;;;5019747;28;20181;-74
2023/08/07 10:04:29;;;;;;;13.40;7.65;;;14.70;99.90;;;;;;5002612;28;20694;-73
2023/08/07 10:06:55;;;;;;;10.10;6.57;;;14.80;99.90;;;;;;5019746;28;20203;-73
2023/08/07 10:09:21;;;;;;;16.92;6.82;;;14.90;99.90;;;;;;5002720;28;20507;-74
2023/08/07 10:11:48;;;;;;;15.30;5.75;;;14.70;99.90;;;;;;5020102;28;20179;-74
2023/08/07 10:14:15;;;;;;;14.02;6.47;;;14.60;99.90;;;;;;5002259;28;20210;-74
2023/08/07 10:16:41;;;;;;;19.10;6.63;;;14.90;99.90;;;;;;5001969;28;20200;-74
2023/08/07 10:19:10;;;;;;;15.70;6.95;;;15.20;99.90;;;;;;5019835;28;20180;-74
2023/08/07 10:21:38;;;;;;;13.60;6.07;;;15.60;99.90;;;;;;5002051;28;20180;-74
2023/08/07 10:24:05;;;;;;;13.23;5.38;;;15.60;99.90;;;;;;5002172;28;20183;-74
2023/08/07 10:26:37;;;;;;;12.10;4.60;;;15.60;99.90;;;;;;5019795;28;20215;-74
2023/08/07 10:29:06;;;;;;;14.00;6.10;;;15.50;99.90;;;;;;5001927;28;20207;-74
2023/08/07 10:31:33;;;;;;;7.82;4.55;;;15.50;99.90;;;;;;5019475;28;20172;-74
2023/08/07 10:33:59;;;;;;;8.45;5.18;;;15.50;99.90;;;;;;5019947;28;20168;-73
2023/08/07 10:36:34;;;;;;;10.15;4.88;;;15.50;99.90;;;;;;5001236;28;20203;-74
2023/08/07 10:39:16;;;;;;;10.00;5.00;;;15.30;99.90;;;;;;4986140;28;20195;-75
2023/08/07 10:41:46;;;;;;;12.43;6.60;;;15.10;99.90;;;;;;5002076;28;20171;-75
2023/08/07 10:44:32;;;;;;;9.18;5.57;;;14.90;99.90;;;;;;5002511;28;20184;-75
2023/08/07 10:47:01;;;;;;;14.57;5.20;;;14.90;99.90;;;;;;4986355;28;20199;-75
2023/08/07 10:49:40;;;;;;;10.57;5.00;;;14.80;99.90;;;;;;5016632;28;20259;-75
2023/08/07 10:52:24;;;;;;;9.45;4.57;;;14.90;99.90;;;;;;4999289;28;20179;-74
2023/08/07 10:55:00;;;;;;;11.27;4.90;;;15.10;99.90;;;;;;4996745;28;20194;-74
2023/08/07 10:57:41;;;;;;;8.73;4.05;;;15.30;99.90;;;;;;5016333;28;20238;-73
2023/08/07 11:00:10;;;;;;;11.07;4.80;;;15.40;99.90;;;;;;4999643;28;20656;-78
2023/08/07 11:02:40;;;;;;;11.95;4.88;;;15.50;99.90;;;;;;4999065;28;20175;-78
2023/08/07 11:05:09;;;;;;;12.18;4.78;;;15.60;99.90;;;;;;4999071;28;20168;-77
2023/08/07 11:07:40;;;;;;;8.73;4.80;;;15.70;99.90;;;;;;5018269;28;20212;-78
2023/08/07 11:10:06;;;;;;;10.27;4.57;;;15.90;99.90;;;;;;4999364;28;20667;-79
2023/08/07 11:12:32;;;;;;;12.40;4.95;;;16.20;99.90;;;;;;5002251;28;20184;-78
2023/08/07 11:14:58;;;;;;;11.88;4.55;;;16.40;99.90;;;;;;4999849;28;20171;-77
2023/08/07 11:17:25;;;;;;;11.50;4.57;;;16.50;99.90;;;;;;5017878;28;20231;-77
2023/08/07 11:19:51;;;;;;;10.80;4.63;;;16.60;99.90;;;;;;5000892;28;20184;-78
2023/08/07 11:22:17;;;;;;;10.07;4.43;;;16.40;99.90;;;;;;5018392;28;20202;-78
2023/08/07 11:24:43;;;;;;;11.63;4.47;;;16.30;99.90;;;;;;5002170;28;20176;-78
2023/08/07 11:27:09;;;;;;;12.20;5.45;;;16.40;99.90;;;;;;4999905;28;20208;-79
2023/08/07 11:29:34;;;;;;;6.97;4.03;;;16.40;99.90;;;;;;5000537;28;20194;-78
2023/08/07 11:32:00;;;;;;;10.88;4.40;;;16.60;99.90;;;;;;4999292;28;20175;-78
2023/08/07 11:34:26;;;;;;;8.88;4.43;;;16.70;99.90;;;;;;5001084;28;20234;-76
2023/08/07 11:36:54;;;;;;;9.00;3.85;;;16.80;99.90;;;;;;5016938;28;20207;-78
2023/08/07 11:39:20;;;;;;;10.63;4.25;;;17.00;99.90;;;;;;5017400;28;20578;-77
2023/08/07 11:41:46;;;;;;;9.20;4.10;;;17.10;99.90;;;;;;4999805;28;20234;-78
2023/08/07 11:44:12;;;;;;;9.25;4.10;;;17.40;99.90;;;;;;5001871;28;20255;-78
2023/08/07 11:46:38;;;;;;;17.00;4.10;;;17.30;99.90;;;;;;5000591;28;20239;-79
2023/08/07 11:49:04;;;;;;;12.57;4.55;;;17.30;99.90;;;;;;5000284;28;20558;-78
2023/08/07 11:51:30;;;;;;;9.05;4.68;;;17.30;99.90;;;;;;4999041;28;20180;-78
2023/08/07 11:53:58;;;;;;;11.45;4.13;;;17.70;99.90;;;;;;5000529;28;20182;-78
2023/08/07 11:56:24;;;;;;;11.25;4.07;;;17.80;99.90;;;;;;4998149;28;20204;-77
2023/08/07 11:58:52;;;;;;;13.07;4.20;;;18.00;99.90;;;;;;4998463;28;20184;-78
2023/08/07 12:01:20;;;;;;;15.65;4.28;;;18.10;99.90;;;;;;4998891;28;20183;-78
2023/08/07 12:04:07;;;;;;;8.60;4.20;;;18.20;99.90;;;;;;4998617;28;20610;-77
2023/08/07 12:06:35;;;;;;;9.70;3.65;;;18.40;99.90;;;;;;4989644;28;20644;-78
2023/08/07 12:09:01;;;;;;;8.70;3.92;;;18.20;99.90;;;;;;5000150;28;20207;-78
2023/08/07 12:11:29;;;;;;;7.90;3.63;;;17.80;99.90;;;;;;5015739;28;20160;-78
2023/08/07 12:13:55;;;;;;;8.60;4.05;;;17.70;99.90;;;;;;4998882;28;20187;-77
2023/08/07 12:16:21;;;;;;;13.98;4.38;;;17.40;99.90;;;;;;5015302;28;20192;-77
2023/08/07 12:18:49;;;;;;;8.52;3.60;;;17.60;99.90;;;;;;4998614;28;20675;-78
2023/08/07 12:21:19;;;;;;;8.95;4.13;;;17.70;99.90;;;;;;5016043;28;20644;-78
2023/08/07 12:23:47;;;;;;;6.10;3.25;;;17.90;99.90;;;;;;4997977;28;20180;-77
2023/08/07 12:26:13;;;;;;;14.75;4.15;;;18.10;62.50;;;;;;4998649;28;20199;-77
2023/08/07 12:28:39;;;;;;;8.77;3.85;;;18.00;1.00;;;;;;5015793;28;20353;-76
2023/08/07 12:31:06;;;;;;;8.80;3.80;;;17.90;2.90;;;;;;5015065;28;20182;-77
2023/08/07 12:33:32;;;;;;;9.70;3.85;;;18.00;1.00;;;;;;4999307;28;20191;-78
2023/08/07 12:35:59;;;;;;;10.90;3.78;;;18.40;18.80;;;;;;5017953;28;20191;-79